Time;durP1;ratioP1;P1;durP2;ratioP2;P2;SDS_P1;SDS_P2;PMS_P1;PMS_P2;Temp;Humidity;BMP_temperature;BMP_pressure;BME280_temperature;BME280_humidity;BME280_pressure;Samples;Min_cycle;Max_cycle;Signal;HPM_P1;HPM_P2
2023/12/13 00:00:15;;;;;;;;;;;;;;;;;;4981984;28;58210;-69
2023/12/13 00:02:40;;;;;;;;;;;;;;;;;;4982167;28;59273;-68
2023/12/13 00:05:05;;;;;;;;;;;;;;;;;;4983550;28;58896;-70
2023/12/13 00:07:30;;;;;;;;;;;;;;;;;;4985963;28;58876;-75
2023/12/13 00:09:55;;;;;;;;;;;;;;;;;;4983022;28;59976;-75
2023/12/13 00:12:20;;;;;;;;;;;;;;;;;;4985491;28;58832;-75
2023/12/13 00:14:46;;;;;;;;;;;;;;;;;;4983571;28;59480;-75
2023/12/13 00:17:14;;;;;;;;;;;;;;;;;;4984066;28;58626;-75
2023/12/13 00:19:39;;;;;;;;;;;;;;;;;;4984828;28;58379;-75
2023/12/13 00:22:04;;;;;;;;;;;;;;;;;;4984416;28;60721;-76
2023/12/13 00:24:29;;;;;;;;;;;;;;;;;;4985283;28;58316;-75
2023/12/13 00:26:54;;;;;;;;;;;;;;;;;;4984098;28;58458;-80
2023/12/13 00:29:19;;;;;;;;;;;;;;;;;;4986019;28;59376;-74
2023/12/13 00:31:44;;;;;;;;;;;;;;;;;;4983671;28;58561;-75
2023/12/13 00:34:10;;;;;;;;;;;;;;;;;;4984715;28;58390;-75
2023/12/13 00:36:35;;;;;;;;;;;;;;;;;;4984428;28;59933;-76
2023/12/13 00:39:00;;;;;;;;;;;;;;;;;;4986760;28;58418;-73
2023/12/13 00:41:26;;;;;;;;;;;;;;;;;;4983094;28;58565;-76
2023/12/13 00:43:51;;;;;;;;;;;;;;;;;;4984258;28;58899;-75
2023/12/13 00:46:22;;;;;;;;;;;;;;;;;;4984807;28;58452;-72
2023/12/13 00:48:47;;;;;;;;;;;;;;;;;;4984859;28;60161;-76
2023/12/13 00:51:13;;;;;;;;;;;;;;;;;;4982594;28;58838;-77
2023/12/13 00:53:38;;;;;;;;;;;;;;;;;;4985406;28;58219;-75
2023/12/13 00:56:04;;;;;;;;;;;;;;;;;;4984090;28;59468;-74
2023/12/13 00:58:29;;;;;;;;;;;;;;;;;;4984910;28;58399;-74
2023/12/13 01:00:54;;;;;;;;;;;;;;;;;;4984786;28;59460;-75
2023/12/13 01:03:19;;;;;;;;;;;;;;;;;;4985790;28;58436;-75
2023/12/13 01:05:44;;;;;;;;;;;;;;;;;;4984401;28;58367;-72
2023/12/13 01:08:09;;;;;;;;;;;;;;;;;;4984283;28;58499;-72
2023/12/13 01:10:34;;;;;;;;;;;;;;;;;;4983839;28;58994;-73
2023/12/13 01:13:00;;;;;;;;;;;;;;;;;;4982815;28;58522;-72
2023/12/13 01:15:26;;;;;;;;;;;;;;;;;;4986420;28;59705;-75
2023/12/13 01:17:51;;;;;;;;;;;;;;;;;;4984857;28;58792;-75
2023/12/13 01:20:16;;;;;;;;;;;;;;;;;;4982968;28;59734;-75
2023/12/13 01:22:41;;;;;;;;;;;;;;;;;;4983541;28;59295;-76
2023/12/13 01:25:06;;;;;;;;;;;;;;;;;;4982113;28;58341;-74
2023/12/13 01:27:31;;;;;;;;;;;;;;;;;;4983216;28;59328;-74
2023/12/13 01:29:56;;;;;;;;;;;;;;;;;;4984258;28;58478;-76
2023/12/13 01:32:21;;;;;;;;;;;;;;;;;;4982731;28;58516;-76
2023/12/13 01:34:46;;;;;;;;;;;;;;;;;;4983302;28;58767;-77
2023/12/13 01:37:11;;;;;;;;;;;;;;;;;;4981406;28;58776;-76
2023/12/13 01:39:37;;;;;;;;;;;;;;;;;;4983635;28;59426;-77
2023/12/13 01:42:02;;;;;;;;;;;;;;;;;;4982163;28;58934;-78
2023/12/13 01:44:27;;;;;;;;;;;;;;;;;;4983263;28;58395;-77
2023/12/13 01:46:52;;;;;;;;;;;;;;;;;;4982054;28;59410;-75
2023/12/13 01:49:17;;;;;;;;;;;;;;;;;;4981434;28;58741;-77
2023/12/13 01:51:42;;;;;;;;;;;;;;;;;;4979968;28;58340;-75
2023/12/13 01:54:07;;;;;;;;;;;;;;;;;;4985254;28;59564;-76
2023/12/13 01:56:33;;;;;;;;;;;;;;;;;;4982996;28;58441;-76
2023/12/13 01:58:58;;;;;;;;;;;;;;;;;;4986235;28;58306;-78
2023/12/13 02:01:23;;;;;;;;;;;;;;;;;;4980666;28;58582;-76
2023/12/13 02:03:48;;;;;;;;;;;;;;;;;;4985216;28;58420;-77
2023/12/13 02:06:13;;;;;;;;;;;;;;;;;;4984996;28;58692;-74
2023/12/13 02:08:38;;;;;;;;;;;;;;;;;;4981543;28;59029;-75
2023/12/13 02:11:03;;;;;;;;;;;;;;;;;;4982752;28;57854;-74
2023/12/13 02:13:28;;;;;;;;;;;;;;;;;;4984586;28;59265;-72
2023/12/13 02:15:53;;;;;;;;;;;;;;;;;;4980744;28;59626;-72
2023/12/13 02:18:19;;;;;;;;;;;;;;;;;;4983700;28;58443;-72
2023/12/13 02:20:44;;;;;;;;;;;;;;;;;;4983011;28;60271;-70
2023/12/13 02:23:09;;;;;;;;;;;;;;;;;;4984067;28;58434;-72
2023/12/13 02:25:34;;;;;;;;;;;;;;;;;;4981767;28;59451;-73
2023/12/13 02:27:59;;;;;;;;;;;;;;;;;;4982405;28;58810;-74
2023/12/13 02:30:24;;;;;;;;;;;;;;;;;;4982485;28;58349;-78
2023/12/13 02:32:49;;;;;;;;;;;;;;;;;;4984829;28;58407;-74
2023/12/13 02:35:14;;;;;;;;;;;;;;;;;;4983676;28;57996;-77
2023/12/13 02:37:40;;;;;;;;;;;;;;;;;;4983164;28;58367;-74
2023/12/13 02:40:06;;;;;;;;;;;;;;;;;;4981719;28;58428;-76
2023/12/13 02:42:31;;;;;;;;;;;;;;;;;;4984408;28;58867;-69
2023/12/13 02:44:56;;;;;;;;;;;;;;;;;;4983289;28;58599;-73
2023/12/13 02:47:25;;;;;;;;;;;;;;;;;;4982570;28;58435;-73
2023/12/13 02:49:50;;;;;;;;;;;;;;;;;;4982307;28;58403;-76
2023/12/13 02:52:15;;;;;;;;;;;;;;;;;;4981455;28;58529;-75
2023/12/13 02:54:40;;;;;;;;;;;;;;;;;;4983073;28;58728;-78
2023/12/13 02:57:05;;;;;;;;;;;;;;;;;;4985386;28;58311;-78
2023/12/13 02:59:31;;;;;;;;;;;;;;;;;;4982706;28;59542;-77
2023/12/13 03:01:56;;;;;;;;;;;;;;;;;;4982476;28;58852;-77
2023/12/13 03:04:21;;;;;;;;;;;;;;;;;;4984177;28;58276;-77
2023/12/13 03:06:47;;;;;;;;;;;;;;;;;;4983055;28;58311;-75
2023/12/13 03:09:12;;;;;;;;;;;;;;;;;;4984598;28;58264;-77
2023/12/13 03:11:39;;;;;;;;;;;;;;;;;;4982093;28;59650;-79
2023/12/13 03:14:04;;;;;;;;;;;;;;;;;;4983204;28;58982;-77
2023/12/13 03:16:29;;;;;;;;;;;;;;;;;;4985175;28;58435;-78
2023/12/13 03:18:54;;;;;;;;;;;;;;;;;;4981618;28;59512;-78
2023/12/13 03:21:19;;;;;;;;;;;;;;;;;;4982440;28;58782;-77
2023/12/13 03:23:44;;;;;;;;;;;;;;;;;;4982118;28;58398;-75
2023/12/13 03:26:09;;;;;;;;;;;;;;;;;;4982335;28;58630;-73
2023/12/13 03:28:35;;;;;;;;;;;;;;;;;;4980729;28;58369;-71
2023/12/13 03:31:00;;;;;;;;;;;;;;;;;;4980597;28;59574;-71
2023/12/13 03:33:26;;;;;;;;;;;;;;;;;;4979046;28;58613;-70
2023/12/13 03:35:51;;;;;;;;;;;;;;;;;;4978138;28;58450;-77
2023/12/13 03:38:16;;;;;;;;;;;;;;;;;;4978833;28;60490;-77
2023/12/13 03:40:41;;;;;;;;;;;;;;;;;;4980149;28;59078;-75
2023/12/13 03:43:06;;;;;;;;;;;;;;;;;;4981918;28;59023;-77
2023/12/13 03:45:31;;;;;;;;;;;;;;;;;;4985039;28;58558;-74
2023/12/13 03:47:56;;;;;;;;;;;;;;;;;;4983393;28;59210;-75
2023/12/13 03:50:21;;;;;;;;;;;;;;;;;;4983218;28;59689;-78
2023/12/13 03:52:46;;;;;;;;;;;;;;;;;;4983936;28;58824;-75
2023/12/13 03:55:12;;;;;;;;;;;;;;;;;;4986701;28;58485;-75
2023/12/13 03:57:38;;;;;;;;;;;;;;;;;;4985708;28;59413;-75
2023/12/13 04:00:03;;;;;;;;;;;;;;;;;;4985516;28;58944;-74
2023/12/13 04:02:28;;;;;;;;;;;;;;;;;;4981708;28;57662;-78
2023/12/13 04:04:53;;;;;;;;;;;;;;;;;;4983365;28;59545;-77
2023/12/13 04:07:18;;;;;;;;;;;;;;;;;;4983893;28;58958;-75
2023/12/13 04:09:43;;;;;;;;;;;;;;;;;;4984761;28;58683;-76
2023/12/13 04:12:08;;;;;;;;;;;;;;;;;;4983894;28;58955;-76
2023/12/13 04:14:33;;;;;;;;;;;;;;;;;;4982707;28;58375;-77
2023/12/13 04:16:58;;;;;;;;;;;;;;;;;;4985189;28;59720;-76
2023/12/13 04:19:23;;;;;;;;;;;;;;;;;;4982115;28;58448;-77
2023/12/13 04:21:48;;;;;;;;;;;;;;;;;;4981948;28;58186;-76
2023/12/13 04:24:13;;;;;;;;;;;;;;;;;;4983966;28;59413;-77
2023/12/13 04:26:39;;;;;;;;;;;;;;;;;;4985586;28;58572;-78
2023/12/13 04:29:04;;;;;;;;;;;;;;;;;;4981517;28;58714;-77
2023/12/13 04:31:29;;;;;;;;;;;;;;;;;;4983369;28;59009;-75
2023/12/13 04:33:54;;;;;;;;;;;;;;;;;;4984802;28;58296;-77
2023/12/13 04:36:19;;;;;;;;;;;;;;;;;;4985891;28;59472;-77
2023/12/13 04:38:45;;;;;;;;;;;;;;;;;;4984597;28;58456;-75
2023/12/13 04:41:10;;;;;;;;;;;;;;;;;;4980362;28;58614;-77
2023/12/13 04:43:35;;;;;;;;;;;;;;;;;;4985132;28;59068;-77
2023/12/13 04:46:00;;;;;;;;;;;;;;;;;;4985648;28;58851;-78
2023/12/13 04:48:25;;;;;;;;;;;;;;;;;;4984575;28;58487;-77
2023/12/13 04:50:50;;;;;;;;;;;;;;;;;;4984707;28;60500;-77
2023/12/13 04:53:15;;;;;;;;;;;;;;;;;;4984187;28;58440;-77
2023/12/13 04:55:40;;;;;;;;;;;;;;;;;;4982947;28;58542;-76
2023/12/13 04:58:05;;;;;;;;;;;;;;;;;;4983014;28;77595;-78
2023/12/13 05:00:30;;;;;;;;;;;;;;;;;;4979584;28;58385;-77
2023/12/13 05:02:56;;;;;;;;;;;;;;;;;;4984845;28;59595;-77
2023/12/13 05:05:21;;;;;;;;;;;;;;;;;;4981358;28;59081;-77
2023/12/13 05:07:46;;;;;;;;;;;;;;;;;;4983663;28;58633;-77
2023/12/13 05:10:11;;;;;;;;;;;;;;;;;;4982549;28;60395;-75
2023/12/13 05:12:36;;;;;;;;;;;;;;;;;;4977029;28;58967;-75
2023/12/13 05:15:01;;;;;;;;;;;;;;;;;;4985395;28;59205;-75
2023/12/13 05:17:26;;;;;;;;;;;;;;;;;;4982657;28;58726;-75
2023/12/13 05:19:51;;;;;;;;;;;;;;;;;;4983778;28;58541;-75
2023/12/13 05:22:16;;;;;;;;;;;;;;;;;;4982784;28;59398;-75
2023/12/13 05:24:42;;;;;;;;;;;;;;;;;;4984162;28;58783;-77
2023/12/13 05:27:07;;;;;;;;;;;;;;;;;;4983646;28;58358;-75
2023/12/13 05:29:32;;;;;;;;;;;;;;;;;;4983142;28;58640;-75
2023/12/13 05:31:57;;;;;;;;;;;;;;;;;;4981440;28;58374;-76
2023/12/13 05:34:22;;;;;;;;;;;;;;;;;;4985021;28;58514;-75
2023/12/13 05:36:47;;;;;;;;;;;;;;;;;;4983958;28;60126;-75
2023/12/13 05:39:13;;;;;;;;;;;;;;;;;;4982853;28;58374;-75
2023/12/13 05:41:38;;;;;;;;;;;;;;;;;;4983396;28;60133;-74
2023/12/13 05:44:04;;;;;;;;;;;;;;;;;;4983474;28;58973;-74
2023/12/13 05:46:33;;;;;;;;;;;;;;;;;;4979181;28;58390;-75
2023/12/13 05:48:58;;;;;;;;;;;;;;;;;;4984807;28;59650;-75
2023/12/13 05:51:23;;;;;;;;;;;;;;;;;;4983586;28;59147;-75
2023/12/13 05:53:49;;;;;;;;;;;;;;;;;;4985607;28;58664;-74
2023/12/13 05:56:14;;;;;;;;;;;;;;;;;;4984364;28;59008;-75
2023/12/13 05:58:39;;;;;;;;;;;;;;;;;;4984526;28;58666;-75
2023/12/13 06:01:06;;;;;;;;;;;;;;;;;;4983115;28;60501;-75
2023/12/13 06:03:31;;;;;;;;;;;;;;;;;;4983844;28;58922;-77
2023/12/13 06:05:57;;;;;;;;;;;;;;;;;;4986527;28;58444;-72
2023/12/13 06:08:22;;;;;;;;;;;;;;;;;;4982469;28;59277;-71
2023/12/13 06:10:47;;;;;;;;;;;;;;;;;;4984096;28;58629;-74
2023/12/13 06:13:12;;;;;;;;;;;;;;;;;;4982764;28;58338;-71
2023/12/13 06:15:38;;;;;;;;;;;;;;;;;;4984753;28;59464;-71
2023/12/13 06:18:03;;;;;;;;;;;;;;;;;;4983857;28;58348;-71
2023/12/13 06:20:28;;;;;;;;;;;;;;;;;;4983705;28;59415;-71
2023/12/13 06:22:54;;;;;;;;;;;;;;;;;;4982348;28;58997;-71
2023/12/13 06:25:19;;;;;;;;;;;;;;;;;;4983530;28;58415;-71
2023/12/13 06:27:44;;;;;;;;;;;;;;;;;;4982776;28;60440;-71
2023/12/13 06:30:10;;;;;;;;;;;;;;;;;;4983451;28;58751;-71
2023/12/13 06:32:35;;;;;;;;;;;;;;;;;;4981693;28;58558;-71
2023/12/13 06:35:00;;;;;;;;;;;;;;;;;;4982965;28;60826;-71
2023/12/13 06:37:25;;;;;;;;;;;;;;;;;;4984046;28;59272;-74
2023/12/13 06:39:50;;;;;;;;;;;;;;;;;;4980304;28;59824;-75
2023/12/13 06:42:16;;;;;;;;;;;;;;;;;;4979854;28;59513;-71
2023/12/13 06:44:41;;;;;;;;;;;;;;;;;;4978359;28;58410;-71
2023/12/13 06:47:06;;;;;;;;;;;;;;;;;;4984832;28;59700;-73
2023/12/13 06:49:31;;;;;;;;;;;;;;;;;;4982273;28;58903;-73
2023/12/13 06:51:56;;;;;;;;;;;;;;;;;;4983320;28;58420;-73
2023/12/13 06:54:21;;;;;;;;;;;;;;;;;;4984664;28;60756;-73
2023/12/13 06:56:46;;;;;;;;;;;;;;;;;;4979212;28;59249;-71
2023/12/13 06:59:11;;;;;;;;;;;;;;;;;;4981056;28;59372;-72
2023/12/13 07:01:36;;;;;;;;;;;;;;;;;;4980254;28;58963;-71
2023/12/13 07:04:02;;;;;;;;;;;;;;;;;;4981012;28;58479;-72
2023/12/13 07:06:27;;;;;;;;;;;;;;;;;;4980636;28;59681;-75
2023/12/13 07:08:52;;;;;;;;;;;;;;;;;;4980777;28;58747;-75
2023/12/13 07:11:17;;;;;;;;;;;;;;;;;;4979707;28;58335;-75
2023/12/13 07:13:43;;;;;;;;;;;;;;;;;;4980671;28;58491;-75
2023/12/13 07:16:08;;;;;;;;;;;;;;;;;;4979771;28;58953;-71
2023/12/13 07:18:33;;;;;;;;;;;;;;;;;;4978838;28;58513;-72
2023/12/13 07:20:58;;;;;;;;;;;;;;;;;;4982368;28;59478;-71
2023/12/13 07:23:25;;;;;;;;;;;;;;;;;;4980955;28;58378;-72
2023/12/13 07:25:50;;;;;;;;;;;;;;;;;;4980911;28;60043;-71
2023/12/13 07:28:16;;;;;;;;;;;;;;;;;;4980721;28;59958;-72
2023/12/13 07:30:41;;;;;;;;;;;;;;;;;;4980234;28;58443;-72
2023/12/13 07:33:06;;;;;;;;;;;;;;;;;;4980936;28;58963;-71
2023/12/13 07:35:31;;;;;;;;;;;;;;;;;;4980744;28;58739;-71
2023/12/13 07:37:56;;;;;;;;;;;;;;;;;;4978700;28;58363;-72
2023/12/13 07:40:21;;;;;;;;;;;;;;;;;;4979138;28;59367;-71
2023/12/13 07:42:47;;;;;;;;;;;;;;;;;;4979600;28;58318;-72
2023/12/13 07:45:13;;;;;;;;;;;;;;;;;;4979928;28;60553;-71
2023/12/13 07:47:38;;;;;;;;;;;;;;;;;;4979710;28;58913;-72
2023/12/13 07:50:03;;;;;;;;;;;;;;;;;;4980677;28;58375;-72
2023/12/13 07:52:28;;;;;;;;;;;;;;;;;;4980472;28;60343;-72
2023/12/13 07:54:55;;;;;;;;;;;;;;;;;;4981638;28;58429;-72
2023/12/13 07:57:21;;;;;;;;;;;;;;;;;;4981284;28;57800;-71
2023/12/13 07:59:46;;;;;;;;;;;;;;;;;;4980733;28;59608;-71
2023/12/13 08:02:11;;;;;;;;;;;;;;;;;;4981332;28;60094;-72
2023/12/13 08:04:36;;;;;;;;;;;;;;;;;;4982741;28;59482;-72
2023/12/13 08:07:01;;;;;;;;;;;;;;;;;;4981530;28;58748;-72
2023/12/13 08:09:26;;;;;;;;;;;;;;;;;;4983080;28;58154;-71
2023/12/13 08:11:51;;;;;;;;;;;;;;;;;;4981537;28;58472;-71
2023/12/13 08:14:16;;;;;;;;;;;;;;;;;;4980662;28;58968;-71
2023/12/13 08:16:42;;;;;;;;;;;;;;;;;;4982354;28;58205;-75
2023/12/13 08:19:07;;;;;;;;;;;;;;;;;;4976665;28;59299;-75
2023/12/13 08:21:32;;;;;;;;;;;;;;;;;;4980657;28;58882;-74
2023/12/13 08:23:57;;;;;;;;;;;;;;;;;;4978141;28;58440;-75
2023/12/13 08:26:25;;;;;;;;;;;;;;;;;;4985270;28;58523;-75
2023/12/13 08:28:50;;;;;;;;;;;;;;;;;;4983517;28;58484;-76
2023/12/13 08:31:15;;;;;;;;;;;;;;;;;;4985386;28;58641;-75
2023/12/13 08:33:40;;;;;;;;;;;;;;;;;;4984921;28;58665;-75
2023/12/13 08:36:05;;;;;;;;;;;;;;;;;;4983749;28;58271;-75
2023/12/13 08:38:30;;;;;;;;;;;;;;;;;;4981673;28;59417;-75
2023/12/13 08:40:55;;;;;;;;;;;;;;;;;;4981903;28;59132;-75
2023/12/13 08:43:20;;;;;;;;;;;;;;;;;;4983631;28;58408;-75
2023/12/13 08:45:46;;;;;;;;;;;;;;;;;;4984003;28;59429;-76
2023/12/13 08:48:11;;;;;;;;;;;;;;;;;;4985338;28;58399;-76
2023/12/13 08:50:36;;;;;;;;;;;;;;;;;;4985234;28;60378;-76
2023/12/13 08:53:01;;;;;;;;;;;;;;;;;;4984490;28;58450;-77
2023/12/13 08:55:26;;;;;;;;;;;;;;;;;;4987082;28;58153;-76
2023/12/13 08:57:51;;;;;;;;;;;;;;;;;;4986077;28;59334;-76
2023/12/13 09:00:17;;;;;;;;;;;;;;;;;;4985823;28;59684;-76
2023/12/13 09:02:42;;;;;;;;;;;;;;;;;;4985821;28;58399;-76
2023/12/13 09:05:07;;;;;;;;;;;;;;;;;;4986341;28;59353;-77
2023/12/13 09:07:32;;;;;;;;;;;;;;;;;;4985297;28;59111;-75
2023/12/13 09:09:58;;;;;;;;;;;;;;;;;;4985945;28;59433;-76
2023/12/13 09:12:23;;;;;;;;;;;;;;;;;;4984109;28;58899;-77
2023/12/13 09:14:48;;;;;;;;;;;;;;;;;;4985533;28;58047;-78
2023/12/13 09:17:13;;;;;;;;;;;;;;;;;;4982847;28;59457;-78
2023/12/13 09:19:38;;;;;;;;;;;;;;;;;;4984221;28;58813;-77
2023/12/13 09:22:03;;;;;;;;;;;;;;;;;;4984472;28;58406;-76
2023/12/13 09:24:28;;;;;;;;;;;;;;;;;;4986396;28;59706;-76
2023/12/13 09:26:54;;;;;;;;;;;;;;;;;;4983281;28;58915;-77
2023/12/13 09:29:19;;;;;;;;;;;;;;;;;;4985692;28;58182;-76
2023/12/13 09:31:45;;;;;;;;;;;;;;;;;;4980671;28;58981;-77
2023/12/13 09:34:10;;;;;;;;;;;;;;;;;;4982329;28;58438;-75
2023/12/13 09:36:35;;;;;;;;;;;;;;;;;;4981879;28;59538;-72
2023/12/13 09:39:00;;;;;;;;;;;;;;;;;;4987041;28;58811;-73
2023/12/13 09:41:25;;;;;;;;;;;;;;;;;;4982748;28;58473;-72
2023/12/13 09:43:51;;;;;;;;;;;;;;;;;;4981997;28;59362;-72
2023/12/13 09:46:17;;;;;;;;;;;;;;;;;;4981132;28;58475;-72
2023/12/13 09:48:42;;;;;;;;;;;;;;;;;;4987325;28;58435;-72
2023/12/13 09:51:07;;;;;;;;;;;;;;;;;;4984812;28;59609;-72
2023/12/13 09:53:32;;;;;;;;;;;;;;;;;;4986716;28;58457;-72
2023/12/13 09:55:57;;;;;;;;;;;;;;;;;;4987581;28;58530;-71
2023/12/13 09:58:22;;;;;;;;;;;;;;;;;;4986271;28;58366;-71
2023/12/13 10:00:47;;;;;;;;;;;;;;;;;;4983716;28;58562;-74
2023/12/13 10:03:12;;;;;;;;;;;;;;;;;;4982825;28;59412;-71
2023/12/13 10:05:39;;;;;;;;;;;;;;;;;;4983722;28;58680;-72
2023/12/13 10:08:04;;;;;;;;;;;;;;;;;;4984198;28;57832;-72
2023/12/13 10:10:31;;;;;;;;;;;;;;;;;;4985368;28;58891;-71
2023/12/13 10:12:56;;;;;;;;;;;;;;;;;;4981690;28;58387;-74
2023/12/13 10:15:22;;;;;;;;;;;;;;;;;;4985892;28;58383;-72
2023/12/13 10:17:47;;;;;;;;;;;;;;;;;;4982548;28;59418;-72
2023/12/13 10:20:12;;;;;;;;;;;;;;;;;;4984328;28;59889;-72
2023/12/13 10:22:38;;;;;;;;;;;;;;;;;;4983047;28;59705;-72
2023/12/13 10:25:03;;;;;;;;;;;;;;;;;;4983220;28;58853;-72
2023/12/13 10:27:28;;;;;;;;;;;;;;;;;;4983300;28;58325;-72
2023/12/13 10:29:54;;;;;;;;;;;;;;;;;;4982788;28;58526;-73
2023/12/13 10:32:19;;;;;;;;;;;;;;;;;;4980221;28;59276;-73
2023/12/13 10:34:45;;;;;;;;;;;;;;;;;;4978662;28;59542;-72
2023/12/13 10:37:10;;;;;;;;;;;;;;;;;;4975125;28;58668;-71
2023/12/13 10:39:35;;;;;;;;;;;;;;;;;;4978124;28;58434;-71
2023/12/13 10:42:00;;;;;;;;;;;;;;;;;;4978914;28;59471;-71
2023/12/13 10:44:25;;;;;;;;;;;;;;;;;;4977987;28;58852;-72
2023/12/13 10:46:55;;;;;;;;;;;;;;;;;;4977533;28;58413;-70
2023/12/13 10:49:21;;;;;;;;;;;;;;;;;;4982785;28;59638;-71
2023/12/13 10:51:46;;;;;;;;;;;;;;;;;;4980344;28;58530;-74
2023/12/13 10:54:12;;;;;;;;;;;;;;;;;;4979489;28;58474;-73
2023/12/13 10:56:37;;;;;;;;;;;;;;;;;;4976451;28;59097;-71
2023/12/13 10:59:02;;;;;;;;;;;;;;;;;;4977583;28;58619;-70
2023/12/13 11:01:27;;;;;;;;;;;;;;;;;;4977167;28;58517;-74
2023/12/13 11:03:52;;;;;;;;;;;;;;;;;;4977708;28;58647;-69
2023/12/13 11:06:17;;;;;;;;;;;;;;;;;;4977673;28;58479;-69
2023/12/13 11:08:46;;;;;;;;;;;;;;;;;;4978593;28;60454;-74
2023/12/13 11:11:12;;;;;;;;;;;;;;;;;;4975926;28;58779;-72
2023/12/13 11:13:39;;;;;;;;;;;;;;;;;;4976345;28;58388;-73
2023/12/13 11:16:04;;;;;;;;;;;;;;;;;;4979384;28;59508;-73
2023/12/13 11:18:30;;;;;;;;;;;;;;;;;;4983320;28;58433;-70
2023/12/13 11:20:55;;;;;;;;;;;;;;;;;;4981172;28;59545;-70
2023/12/13 11:23:20;;;;;;;;;;;;;;;;;;4982061;28;58835;-71
2023/12/13 11:25:46;;;;;;;;;;;;;;;;;;4982734;28;58726;-71
2023/12/13 11:28:11;;;;;;;;;;;;;;;;;;4979093;28;60349;-70
2023/12/13 11:30:41;;;;;;;;;;;;;;;;;;4980688;28;58458;-70
2023/12/13 11:33:06;;;;;;;;;;;;;;;;;;4984049;28;58355;-72
2023/12/13 11:35:31;;;;;;;;;;;;;;;;;;4980914;28;59505;-70
2023/12/13 11:37:56;;;;;;;;;;;;;;;;;;4982738;28;58326;-72
2023/12/13 11:40:21;;;;;;;;;;;;;;;;;;4980861;28;59422;-70
2023/12/13 11:42:47;;;;;;;;;;;;;;;;;;4980528;28;58798;-71
2023/12/13 11:45:12;;;;;;;;;;;;;;;;;;4980248;28;58674;-71
2023/12/13 11:47:37;;;;;;;;;;;;;;;;;;4976937;28;59282;-70
2023/12/13 11:50:02;;;;;;;;;;;;;;;;;;4975578;28;58395;-70
2023/12/13 11:52:27;;;;;;;;;;;;;;;;;;4976938;28;58303;-70
2023/12/13 11:54:52;;;;;;;;;;;;;;;;;;4976581;28;60092;-71
2023/12/13 11:57:18;;;;;;;;;;;;;;;;;;4977302;28;58771;-71
2023/12/13 11:59:43;;;;;;;;;;;;;;;;;;4977183;28;59554;-70
2023/12/13 12:02:08;;;;;;;;;;;;;;;;;;4977460;28;59917;-72
2023/12/13 12:04:33;;;;;;;;;;;;;;;;;;4982658;28;58458;-71
2023/12/13 12:06:58;;;;;;;;;;;;;;;;;;4981126;28;58450;-72
2023/12/13 12:09:24;;;;;;;;;;;;;;;;;;4980870;28;58342;-73
2023/12/13 12:11:49;;;;;;;;;;;;;;;;;;4984010;28;58462;-70
2023/12/13 12:14:14;;;;;;;;;;;;;;;;;;4986322;28;59600;-69
2023/12/13 12:16:39;;;;;;;;;;;;;;;;;;4984845;28;58874;-74
2023/12/13 12:19:04;;;;;;;;;;;;;;;;;;4984247;28;58386;-72
2023/12/13 12:21:32;;;;;;;;;;;;;;;;;;4984808;28;58937;-72
2023/12/13 12:23:58;;;;;;;;;;;;;;;;;;4983982;28;58397;-71
2023/12/13 12:26:25;;;;;;;;;;;;;;;;;;4985569;28;59756;-72
2023/12/13 12:28:50;;;;;;;;;;;;;;;;;;4980654;28;59082;-70
2023/12/13 12:31:15;;;;;;;;;;;;;;;;;;4984077;28;58475;-71
2023/12/13 12:33:40;;;;;;;;;;;;;;;;;;4980532;28;59829;-70
2023/12/13 12:36:05;;;;;;;;;;;;;;;;;;4984779;28;59793;-70
2023/12/13 12:38:30;;;;;;;;;;;;;;;;;;4985394;28;58327;-70
2023/12/13 12:40:55;;;;;;;;;;;;;;;;;;4983492;28;58397;-70
2023/12/13 12:43:20;;;;;;;;;;;;;;;;;;4983347;28;58602;-69
2023/12/13 12:45:46;;;;;;;;;;;;;;;;;;4985539;28;58509;-70
2023/12/13 12:48:12;;;;;;;;;;;;;;;;;;4982244;28;59051;-70
2023/12/13 12:50:37;;;;;;;;;;;;;;;;;;4983969;28;58447;-70
2023/12/13 12:53:02;;;;;;;;;;;;;;;;;;4985330;28;60525;-69
2023/12/13 12:55:27;;;;;;;;;;;;;;;;;;4984101;28;58702;-69
2023/12/13 12:57:52;;;;;;;;;;;;;;;;;;4983328;28;58676;-71
2023/12/13 13:00:18;;;;;;;;;;;;;;;;;;4982963;28;59429;-73
2023/12/13 13:02:43;;;;;;;;;;;;;;;;;;4982087;28;59780;-74
2023/12/13 13:05:08;;;;;;;;;;;;;;;;;;4982855;28;58508;-70
2023/12/13 13:07:33;;;;;;;;;;;;;;;;;;4983762;28;58446;-71
2023/12/13 13:09:59;;;;;;;;;;;;;;;;;;4983411;28;58607;-70
2023/12/13 13:12:24;;;;;;;;;;;;;;;;;;4982961;28;60055;-74
2023/12/13 13:14:49;;;;;;;;;;;;;;;;;;4983855;28;58650;-72
2023/12/13 13:17:14;;;;;;;;;;;;;;;;;;4983759;28;58368;-72
2023/12/13 13:19:39;;;;;;;;;;;;;;;;;;4983398;28;58801;-71
2023/12/13 13:22:05;;;;;;;;;;;;;;;;;;4982073;28;58435;-71
2023/12/13 13:24:30;;;;;;;;;;;;;;;;;;4983846;28;58019;-70
2023/12/13 13:26:55;;;;;;;;;;;;;;;;;;4979650;28;59230;-69
2023/12/13 13:29:20;;;;;;;;;;;;;;;;;;4981769;28;58449;-73
2023/12/13 13:31:46;;;;;;;;;;;;;;;;;;4981751;28;59291;-70
2023/12/13 13:34:11;;;;;;;;;;;;;;;;;;4981778;28;58941;-70
2023/12/13 13:36:36;;;;;;;;;;;;;;;;;;4981308;28;58262;-70
2023/12/13 13:39:01;;;;;;;;;;;;;;;;;;4984000;28;59274;-72
2023/12/13 13:41:28;;;;;;;;;;;;;;;;;;4979135;28;59527;-72
2023/12/13 13:43:53;;;;;;;;;;;;;;;;;;4979671;28;58438;-72
2023/12/13 13:46:19;;;;;;;;;;;;;;;;;;4982514;28;59502;-70
2023/12/13 13:48:44;;;;;;;;;;;;;;;;;;4982620;28;58398;-69
2023/12/13 13:51:09;;;;;;;;;;;;;;;;;;4983118;28;59357;-70
2023/12/13 13:53:34;;;;;;;;;;;;;;;;;;4984011;28;58437;-73
2023/12/13 13:55:59;;;;;;;;;;;;;;;;;;4984361;28;58678;-70
2023/12/13 13:58:24;;;;;;;;;;;;;;;;;;4983680;28;59708;-70
2023/12/13 14:00:49;;;;;;;;;;;;;;;;;;4979562;28;59501;-71
2023/12/13 14:03:15;;;;;;;;;;;;;;;;;;4983677;28;58349;-71
2023/12/13 14:05:40;;;;;;;;;;;;;;;;;;4984281;28;59697;-70
2023/12/13 14:08:06;;;;;;;;;;;;;;;;;;4982614;28;58617;-73
2023/12/13 14:10:31;;;;;;;;;;;;;;;;;;4983429;28;59780;-70
2023/12/13 14:12:56;;;;;;;;;;;;;;;;;;4980165;28;59994;-71
2023/12/13 14:15:21;;;;;;;;;;;;;;;;;;4983132;28;58373;-70
2023/12/13 14:17:47;;;;;;;;;;;;;;;;;;4982359;28;59422;-75
2023/12/13 14:20:12;;;;;;;;;;;;;;;;;;4981066;28;59847;-76
2023/12/13 14:22:37;;;;;;;;;;;;;;;;;;4983006;28;58349;-76
2023/12/13 14:25:03;;;;;;;;;;;;;;;;;;4983305;28;59283;-76
2023/12/13 14:27:28;;;;;;;;;;;;;;;;;;4982149;28;59138;-78
2023/12/13 14:29:53;;;;;;;;;;;;;;;;;;4981552;28;58358;-76
2023/12/13 14:32:18;;;;;;;;;;;;;;;;;;4979607;28;59881;-76
2023/12/13 14:34:43;;;;;;;;;;;;;;;;;;4982349;28;58333;-76
2023/12/13 14:37:09;;;;;;;;;;;;;;;;;;4981277;28;58656;-75
2023/12/13 14:39:34;;;;;;;;;;;;;;;;;;4980836;28;59098;-73
2023/12/13 14:41:59;;;;;;;;;;;;;;;;;;4981434;28;58411;-77
2023/12/13 14:44:24;;;;;;;;;;;;;;;;;;4981683;28;59676;-73
2023/12/13 14:46:49;;;;;;;;;;;;;;;;;;4982316;28;58909;-73
2023/12/13 14:49:14;;;;;;;;;;;;;;;;;;4983418;28;58419;-74
2023/12/13 14:51:40;;;;;;;;;;;;;;;;;;4981046;28;58768;-73
2023/12/13 14:54:05;;;;;;;;;;;;;;;;;;4982703;28;58469;-74
2023/12/13 14:56:35;;;;;;;;;;;;;;;;;;4978758;28;60784;-73
2023/12/13 14:59:01;;;;;;;;;;;;;;;;;;4980432;28;59391;-72
2023/12/13 15:01:26;;;;;;;;;;;;;;;;;;4981534;28;58471;-72
2023/12/13 15:03:51;;;;;;;;;;;;;;;;;;4982138;28;58489;-73
2023/12/13 15:06:16;;;;;;;;;;;;;;;;;;4982833;28;58849;-73
2023/12/13 15:08:41;;;;;;;;;;;;;;;;;;4983912;28;58414;-73
2023/12/13 15:11:06;;;;;;;;;;;;;;;;;;4980735;28;58518;-74
2023/12/13 15:13:32;;;;;;;;;;;;;;;;;;4980062;28;58648;-82
2023/12/13 15:15:58;;;;;;;;;;;;;;;;;;4980743;28;59377;-75
2023/12/13 15:18:23;;;;;;;;;;;;;;;;;;4982312;28;59201;-77
2023/12/13 15:20:49;;;;;;;;;;;;;;;;;;4982690;28;58554;-75
2023/12/13 15:23:15;;;;;;;;;;;;;;;;;;4980859;28;59174;-75
2023/12/13 15:25:40;;;;;;;;;;;;;;;;;;4982096;28;58414;-75
2023/12/13 15:28:06;;;;;;;;;;;;;;;;;;4981981;28;58592;-75
2023/12/13 15:30:32;;;;;;;;;;;;;;;;;;4981617;28;59501;-74
2023/12/13 15:32:57;;;;;;;;;;;;;;;;;;4982088;28;59841;-76
2023/12/13 15:35:22;;;;;;;;;;;;;;;;;;4985726;28;58887;-77
2023/12/13 15:37:47;;;;;;;;;;;;;;;;;;4986034;28;60818;-76
2023/12/13 15:40:12;;;;;;;;;;;;;;;;;;4986986;28;58382;-77
2023/12/13 15:42:37;;;;;;;;;;;;;;;;;;4986104;28;59272;-77
2023/12/13 15:45:03;;;;;;;;;;;;;;;;;;4983461;28;58388;-77
2023/12/13 15:47:28;;;;;;;;;;;;;;;;;;4988252;28;58475;-77
2023/12/13 15:49:55;;;;;;;;;;;;;;;;;;4987387;28;58652;-77
2023/12/13 15:52:20;;;;;;;;;;;;;;;;;;4987963;28;58428;-77
2023/12/13 15:54:45;;;;;;;;;;;;;;;;;;4988447;28;58547;-77
2023/12/13 15:57:10;;;;;;;;;;;;;;;;;;4986192;28;58828;-77
2023/12/13 15:59:35;;;;;;;;;;;;;;;;;;4985851;28;58496;-77
2023/12/13 16:02:04;;;;;;;;;;;;;;;;;;4985006;28;59799;-77
2023/12/13 16:04:29;;;;;;;;;;;;;;;;;;4985264;28;58420;-77
2023/12/13 16:06:55;;;;;;;;;;;;;;;;;;4985372;28;58288;-78
2023/12/13 16:09:21;;;;;;;;;;;;;;;;;;4987001;28;60346;-77
2023/12/13 16:11:46;;;;;;;;;;;;;;;;;;4983039;28;59886;-77
2023/12/13 16:14:11;;;;;;;;;;;;;;;;;;4985326;28;58428;-70
2023/12/13 16:16:36;;;;;;;;;;;;;;;;;;4983318;28;58390;-74
2023/12/13 16:19:01;;;;;;;;;;;;;;;;;;4983716;28;58973;-75
2023/12/13 16:21:28;;;;;;;;;;;;;;;;;;4985038;28;58481;-75
2023/12/13 16:23:54;;;;;;;;;;;;;;;;;;4985790;28;59770;-75
2023/12/13 16:26:19;;;;;;;;;;;;;;;;;;4983633;28;58712;-75
2023/12/13 16:28:44;;;;;;;;;;;;;;;;;;4984217;28;59517;-75
2023/12/13 16:31:09;;;;;;;;;;;;;;;;;;4984224;28;58387;-75